createdAt,value
2018-07-08T00:00:32.071Z,78.40
2018-07-08T00:03:07.389Z,78.70
2018-07-08T00:05:42.999Z,78.50
2018-07-08T00:08:18.970Z,78.60
2018-07-08T00:10:58.610Z,79.10
2018-07-08T00:13:33.795Z,78.90
2018-07-08T00:16:08.985Z,79.30
2018-07-08T00:18:44.544Z,79.70
2018-07-08T00:21:19.782Z,79.70
2018-07-08T00:23:55.112Z,80.00
2018-07-08T00:26:30.460Z,80.00
2018-07-08T00:29:05.972Z,79.80
2018-07-08T00:31:41.420Z,80.20
2018-07-08T00:34:16.813Z,80.30
2018-07-08T00:36:52.001Z,80.60
2018-07-08T00:39:27.210Z,80.70
2018-07-08T00:44:37.559Z,81.20
2018-07-08T00:47:12.799Z,81.60
2018-07-08T00:49:48.380Z,81.40
2018-07-08T00:52:23.732Z,81.30
2018-07-08T00:54:59.059Z,81.10
2018-07-08T00:57:34.529Z,80.90
2018-07-08T01:00:19.592Z,81.00
2018-07-08T01:05:30.131Z,81.40
2018-07-08T01:08:05.893Z,81.40
2018-07-08T01:10:41.021Z,80.80
2018-07-08T01:13:16.220Z,81.00
2018-07-08T01:15:51.467Z,81.50
2018-07-08T01:18:26.756Z,81.50
2018-07-08T01:21:02.038Z,81.90
2018-07-08T01:26:13.363Z,82.40
2018-07-08T01:28:48.815Z,82.40
2018-07-08T01:31:24.132Z,82.90
2018-07-08T01:33:59.345Z,82.80
2018-07-08T01:36:34.652Z,83.20
2018-07-08T01:39:09.961Z,83.60
2018-07-08T01:44:19.880Z,83.70
2018-07-08T01:46:55.096Z,84.20
2018-07-08T01:49:30.889Z,84.50
2018-07-08T01:52:06.336Z,84.60
2018-07-08T01:54:42.253Z,84.40
2018-07-08T01:57:18.043Z,84.80
2018-07-08T02:02:29.318Z,85.70
2018-07-08T02:05:04.424Z,85.80
2018-07-08T02:07:39.719Z,86.30
2018-07-08T02:10:14.839Z,86.70
2018-07-08T02:12:50.559Z,86.80
2018-07-08T02:15:25.718Z,86.90
2018-07-08T02:18:01.144Z,87.40
2018-07-08T02:20:36.490Z,87.60
2018-07-08T02:23:11.701Z,87.60
2018-07-08T02:25:47.407Z,88.30
2018-07-08T02:28:22.854Z,88.90
2018-07-08T02:30:58.044Z,89.30
2018-07-08T02:33:33.481Z,89.20
2018-07-08T02:36:08.718Z,89.50
2018-07-08T02:38:44.039Z,89.40
2018-07-08T02:41:19.421Z,89.60
2018-07-08T02:43:54.610Z,89.60
2018-07-08T02:46:29.946Z,89.80
2018-07-08T02:49:05.223Z,89.80
2018-07-08T02:51:40.397Z,90.10
2018-07-08T02:54:15.564Z,90.30
2018-07-08T02:56:51.125Z,90.40
2018-07-08T02:59:26.212Z,90.50
2018-07-08T03:02:01.484Z,90.60
2018-07-08T03:04:36.903Z,91.10
2018-07-08T03:07:12.249Z,91.20
2018-07-08T03:09:47.652Z,91.20
2018-07-08T03:12:23.100Z,91.40
2018-07-08T03:14:58.367Z,91.60
2018-07-08T03:17:34.093Z,91.60
2018-07-08T03:20:09.155Z,91.70
2018-07-08T03:22:44.436Z,91.90
2018-07-08T03:25:19.696Z,92.00
2018-07-08T03:27:54.927Z,92.30
2018-07-08T03:30:30.705Z,92.50
2018-07-08T03:35:40.664Z,92.60
2018-07-08T03:38:16.300Z,92.70
2018-07-08T03:40:52.165Z,92.70
2018-07-08T03:43:27.440Z,92.80
2018-07-08T03:46:02.704Z,93.00
2018-07-08T03:48:38.481Z,93.10
2018-07-08T03:51:13.795Z,93.20
2018-07-08T03:53:48.941Z,93.50
2018-07-08T03:56:24.376Z,93.60
2018-07-08T03:58:59.918Z,93.60
2018-07-08T04:01:35.305Z,93.70
2018-07-08T04:06:45.393Z,94.10
2018-07-08T04:09:21.520Z,94.00
2018-07-08T04:11:56.694Z,94.10
2018-07-08T04:14:31.991Z,94.10
2018-07-08T04:17:07.181Z,94.40
2018-07-08T04:19:42.505Z,94.70
2018-07-08T04:22:18.201Z,94.80
2018-07-08T04:24:55.596Z,94.90
2018-07-08T04:27:31.133Z,94.90
2018-07-08T04:30:06.222Z,95.00
2018-07-08T04:32:41.415Z,95.20
2018-07-08T04:35:16.656Z,95.50
2018-07-08T04:37:52.017Z,95.60
2018-07-08T04:40:27.869Z,95.60
2018-07-08T04:43:03.061Z,95.80
2018-07-08T04:45:38.292Z,95.80
2018-07-08T04:48:13.533Z,95.60
2018-07-08T04:50:48.760Z,95.60
2018-07-08T04:53:23.915Z,95.60
2018-07-08T04:55:59.391Z,95.60
2018-07-08T04:58:34.524Z,95.60
2018-07-08T05:01:09.876Z,95.40
2018-07-08T05:03:45.535Z,95.70
2018-07-08T05:06:21.827Z,95.50
2018-07-08T05:08:57.271Z,95.60
2018-07-08T05:11:32.745Z,95.70
2018-07-08T05:14:08.223Z,95.70
2018-07-08T05:16:43.571Z,95.70
2018-07-08T05:19:18.824Z,96.00
2018-07-08T05:21:54.243Z,95.90
2018-07-08T05:24:29.803Z,95.80
2018-07-08T05:27:05.409Z,95.60
2018-07-08T05:29:40.775Z,95.50
2018-07-08T05:32:16.264Z,95.30
2018-07-08T05:37:26.620Z,94.90
2018-07-08T05:40:01.846Z,94.90
2018-07-08T05:42:37.112Z,95.10
2018-07-08T05:45:12.506Z,95.30
2018-07-08T05:47:47.671Z,94.80
2018-07-08T05:50:23.178Z,94.80
2018-07-08T05:52:58.474Z,94.90
2018-07-08T05:58:09.316Z,95.10
2018-07-08T06:00:44.475Z,95.20
2018-07-08T06:03:19.753Z,95.10
2018-07-08T06:05:54.975Z,94.70
2018-07-08T06:08:30.379Z,94.70
2018-07-08T06:11:05.843Z,94.50
2018-07-08T06:13:40.975Z,94.40
2018-07-08T06:18:51.582Z,94.70
2018-07-08T06:21:27.378Z,94.20
2018-07-08T06:24:02.629Z,93.80
2018-07-08T06:26:37.836Z,93.40
2018-07-08T06:31:48.102Z,93.50
2018-07-08T06:34:23.252Z,93.40
2018-07-08T06:36:59.143Z,93.40
2018-07-08T06:42:14.195Z,93.00
2018-07-08T06:44:49.457Z,92.60
2018-07-08T06:47:24.609Z,93.00
2018-07-08T06:49:59.960Z,92.40
2018-07-08T06:52:35.191Z,92.20
2018-07-08T06:55:10.524Z,92.70
2018-07-08T06:57:45.963Z,92.80
2018-07-08T07:00:21.234Z,92.30
2018-07-08T07:02:56.830Z,91.20
2018-07-08T07:05:32.797Z,90.80
2018-07-08T07:08:08.246Z,91.20
2018-07-08T07:10:45.736Z,91.10
2018-07-08T07:13:20.900Z,90.90
2018-07-08T07:15:56.453Z,90.60
2018-07-08T07:21:07.398Z,90.70
2018-07-08T07:23:42.790Z,90.50
2018-07-08T07:26:18.681Z,90.90
2018-07-08T07:28:54.321Z,90.50
2018-07-08T07:31:29.771Z,89.80
2018-07-08T07:34:05.227Z,90.10
2018-07-08T07:36:40.876Z,90.00
2018-07-08T07:39:17.295Z,87.50
2018-07-08T07:41:52.404Z,88.00
2018-07-08T07:44:27.576Z,87.80
2018-07-08T07:47:02.735Z,88.90
2018-07-08T07:49:38.005Z,88.10
2018-07-08T07:52:13.573Z,87.80
2018-07-08T07:54:48.920Z,86.20
2018-07-08T07:57:24.315Z,86.60
2018-07-08T08:00:00.252Z,86.40
2018-07-08T08:02:36.027Z,84.40
2018-07-08T08:05:11.265Z,85.50
2018-07-08T08:07:46.761Z,85.70
2018-07-08T08:10:22.041Z,86.10
2018-07-08T08:12:57.432Z,84.00
2018-07-08T08:15:32.929Z,84.10
2018-07-08T08:18:08.160Z,85.10
2018-07-08T08:20:43.352Z,84.10
2018-07-08T08:23:18.831Z,83.30
2018-07-08T08:25:54.315Z,82.60
2018-07-08T08:28:29.917Z,81.40
2018-07-08T08:31:05.237Z,80.10
2018-07-08T08:33:40.928Z,80.20
2018-07-08T08:36:16.407Z,78.10
2018-07-08T08:38:51.714Z,77.40
2018-07-08T08:41:26.928Z,78.10
2018-07-08T08:44:02.793Z,77.70
2018-07-08T08:46:38.400Z,76.50
2018-07-08T08:49:14.228Z,77.70
2018-07-08T08:51:49.505Z,77.30
2018-07-08T08:54:25.010Z,76.80
2018-07-08T08:57:00.368Z,76.50
2018-07-08T08:59:36.060Z,75.90
2018-07-08T09:04:46.305Z,74.20
2018-07-08T09:07:22.296Z,73.50
2018-07-08T09:09:57.629Z,74.50
2018-07-08T09:12:32.917Z,74.30
2018-07-08T09:15:08.294Z,73.10
2018-07-08T09:17:43.855Z,73.50
2018-07-08T09:20:19.814Z,73.60
2018-07-08T09:22:54.995Z,74.10
2018-07-08T09:25:30.405Z,75.10
2018-07-08T09:28:06.276Z,73.90
2018-07-08T09:30:41.652Z,73.40
2018-07-08T09:33:17.032Z,73.60
2018-07-08T09:35:58.865Z,72.90
2018-07-08T09:38:34.071Z,73.10
2018-07-08T09:41:09.746Z,73.90
2018-07-08T09:43:45.071Z,72.90
2018-07-08T09:46:20.744Z,73.80
2018-07-08T09:48:55.890Z,73.50
2018-07-08T09:51:31.428Z,73.30
2018-07-08T09:54:07.282Z,73.70
2018-07-08T09:56:43.005Z,74.00
2018-07-08T09:59:18.207Z,74.50
2018-07-08T10:01:53.819Z,72.90
2018-07-08T10:04:28.984Z,73.30
2018-07-08T10:07:04.663Z,73.60
2018-07-08T10:12:15.131Z,73.10
2018-07-08T10:14:50.415Z,73.20
2018-07-08T10:17:25.765Z,74.20
2018-07-08T10:20:01.125Z,73.70
2018-07-08T10:22:36.355Z,73.20
2018-07-08T10:25:11.986Z,73.30
2018-07-08T10:28:24.731Z,73.70
2018-07-08T10:31:00.409Z,74.90
2018-07-08T10:33:49.396Z,74.30
2018-07-08T10:38:59.769Z,73.10
2018-07-08T10:41:35.068Z,72.50
2018-07-08T10:44:11.019Z,72.70
2018-07-08T10:46:46.409Z,72.80
2018-07-08T10:49:21.960Z,73.90
2018-07-08T10:51:57.171Z,73.20
2018-07-08T10:57:08.709Z,72.60
2018-07-08T10:59:44.431Z,72.20
2018-07-08T11:02:19.773Z,72.60
2018-07-08T11:04:55.341Z,72.10
2018-07-08T11:07:30.905Z,72.00
2018-07-08T11:10:06.176Z,72.00
2018-07-08T11:12:41.602Z,72.30
2018-07-08T11:15:16.896Z,71.70
2018-07-08T11:17:52.441Z,73.10
2018-07-08T11:20:28.138Z,73.50
2018-07-08T11:23:03.439Z,72.90
2018-07-08T11:25:38.596Z,72.50
2018-07-08T11:31:09.221Z,70.90
2018-07-08T11:33:44.875Z,71.50
2018-07-08T11:36:20.250Z,71.00
2018-07-08T11:38:55.670Z,70.00
2018-07-08T11:41:31.064Z,70.50
2018-07-08T11:44:06.890Z,71.20
2018-07-08T11:46:42.319Z,69.50
2018-07-08T11:49:17.905Z,70.40
2018-07-08T11:51:53.721Z,70.10
2018-07-08T11:54:28.941Z,71.50
2018-07-08T11:57:04.215Z,68.90
2018-07-08T11:59:39.461Z,69.40
2018-07-08T12:02:15.091Z,70.40
2018-07-08T12:04:50.523Z,70.00
2018-07-08T12:07:25.911Z,70.10
2018-07-08T12:10:01.609Z,70.10
2018-07-08T12:12:36.824Z,67.70
2018-07-08T12:15:13.357Z,69.60
2018-07-08T12:17:48.653Z,68.50
2018-07-08T12:20:23.895Z,67.80
2018-07-08T12:22:59.093Z,68.00
2018-07-08T12:25:34.574Z,68.50
2018-07-08T12:28:09.977Z,68.20
2018-07-08T12:30:45.407Z,68.60
2018-07-08T12:33:21.032Z,68.20
2018-07-08T12:35:56.550Z,67.70
2018-07-08T12:38:31.744Z,67.90
2018-07-08T12:41:07.081Z,66.80
2018-07-08T12:43:42.380Z,66.40
2018-07-08T12:46:17.671Z,65.70
2018-07-08T12:48:52.851Z,65.40
2018-07-08T12:51:28.179Z,66.70
2018-07-08T12:54:03.509Z,65.90
2018-07-08T12:56:38.901Z,64.90
2018-07-08T12:59:14.732Z,65.30
2018-07-08T13:01:50.220Z,65.80
2018-07-08T13:04:25.450Z,64.70
2018-07-08T13:07:00.534Z,64.50
2018-07-08T13:09:35.707Z,64.70
2018-07-08T13:12:11.785Z,64.40
2018-07-08T13:14:47.218Z,63.40
2018-07-08T13:17:22.540Z,63.80
2018-07-08T13:25:07.875Z,62.10
2018-07-08T13:27:43.092Z,61.10
2018-07-08T13:30:18.212Z,61.40
2018-07-08T13:32:53.559Z,61.60
2018-07-08T13:35:28.871Z,60.60
2018-07-08T13:38:04.146Z,59.80
2018-07-08T13:40:39.728Z,59.70
2018-07-08T13:45:50.098Z,59.70
2018-07-08T13:48:25.553Z,60.20
2018-07-08T13:51:01.040Z,61.00
2018-07-08T13:53:37.079Z,59.80
2018-07-08T13:56:12.533Z,59.00
2018-07-08T13:58:48.198Z,58.90
2018-07-08T14:01:23.509Z,58.30
2018-07-08T14:03:58.844Z,58.30
2018-07-08T14:06:34.172Z,58.20
2018-07-08T14:09:09.699Z,58.30
2018-07-08T14:11:45.224Z,58.40
2018-07-08T14:14:20.770Z,58.20
2018-07-08T14:16:55.962Z,57.90
2018-07-08T14:19:31.174Z,58.70
2018-07-08T14:22:06.620Z,58.20
2018-07-08T14:24:42.010Z,58.70
2018-07-08T14:27:17.668Z,58.40
2018-07-08T14:29:53.405Z,58.40
2018-07-08T14:32:28.499Z,57.50
2018-07-08T14:35:04.472Z,57.50
2018-07-08T14:37:39.965Z,58.20
2018-07-08T14:40:15.672Z,57.30
2018-07-08T14:42:51.077Z,56.10
2018-07-08T14:45:26.451Z,57.30
2018-07-08T14:48:01.553Z,57.90
2018-07-08T14:50:36.967Z,56.90
2018-07-08T14:58:49.365Z,57.30
2018-07-08T15:01:25.155Z,56.20
2018-07-08T15:04:00.644Z,56.30
2018-07-08T15:06:36.200Z,56.20
2018-07-08T15:09:12.359Z,56.50
2018-07-08T15:11:47.707Z,56.80
2018-07-08T15:16:58.209Z,56.00
2018-07-08T15:19:33.712Z,56.30
2018-07-08T15:22:09.927Z,56.40
2018-07-08T15:24:45.076Z,56.00
2018-07-08T15:27:20.235Z,56.60
2018-07-08T15:29:55.574Z,55.90
2018-07-08T15:32:31.301Z,57.00
2018-07-08T15:35:06.644Z,57.70
2018-07-08T15:37:41.987Z,57.30
2018-07-08T15:40:17.975Z,57.50
2018-07-08T15:42:53.495Z,57.90
2018-07-08T15:45:29.249Z,57.70
2018-07-08T15:48:05.141Z,57.70
2018-07-08T15:50:40.303Z,57.70
2018-07-08T15:53:15.488Z,57.20
2018-07-08T15:55:50.826Z,59.60
2018-07-08T15:58:26.088Z,58.60
2018-07-08T16:01:01.650Z,58.60
2018-07-08T16:03:37.161Z,58.00
2018-07-08T16:06:12.433Z,57.60
2018-07-08T16:08:47.889Z,57.30
2018-07-08T16:11:28.846Z,58.00
2018-07-08T16:14:04.150Z,58.20
2018-07-08T16:16:39.663Z,57.50
2018-07-08T16:19:15.235Z,57.60
2018-07-08T16:21:50.430Z,58.10
2018-07-08T16:24:25.888Z,58.40
2018-07-08T16:27:01.433Z,59.50
2018-07-08T16:29:36.916Z,59.40
2018-07-08T16:32:12.423Z,59.20
2018-07-08T16:34:47.737Z,58.50
2018-07-08T16:37:22.990Z,57.80
2018-07-08T16:40:01.913Z,58.30
2018-07-08T16:45:12.634Z,59.30
2018-07-08T16:47:48.639Z,58.20
2018-07-08T16:50:24.016Z,59.50
2018-07-08T16:52:59.336Z,57.60
2018-07-08T16:55:35.149Z,58.60
2018-07-08T16:58:10.648Z,59.00
2018-07-08T17:00:46.372Z,59.20
2018-07-08T17:03:22.098Z,59.60
2018-07-08T17:05:57.584Z,60.50
2018-07-08T17:08:33.321Z,60.60
2018-07-08T17:11:08.545Z,61.30
2018-07-08T17:13:43.823Z,60.90
2018-07-08T17:16:19.867Z,59.80
2018-07-08T17:18:55.428Z,59.40
2018-07-08T17:24:06.384Z,58.80
2018-07-08T17:26:41.652Z,59.50
2018-07-08T17:29:16.965Z,59.10
2018-07-08T17:31:53.222Z,59.00
2018-07-08T17:34:28.446Z,60.10
2018-07-08T17:37:03.980Z,59.50
2018-07-08T17:39:39.277Z,58.80
2018-07-08T17:42:15.332Z,58.70
2018-07-08T17:44:50.458Z,59.20
2018-07-08T17:47:25.716Z,59.00
2018-07-08T17:50:03.275Z,59.00
2018-07-08T17:52:38.640Z,59.80
2018-07-08T17:55:14.084Z,59.00
2018-07-08T17:57:49.425Z,59.10
2018-07-08T18:00:24.811Z,59.50
2018-07-08T18:03:00.103Z,60.10
2018-07-08T18:05:35.488Z,59.40
2018-07-08T18:08:10.888Z,59.40
2018-07-08T18:10:46.219Z,60.20
2018-07-08T18:13:22.166Z,61.00
2018-07-08T18:15:57.535Z,61.20
2018-07-08T18:18:32.938Z,61.50
2018-07-08T18:21:08.295Z,61.50
2018-07-08T18:23:43.508Z,61.70
2018-07-08T18:26:18.823Z,61.70
2018-07-08T18:28:54.262Z,61.90
2018-07-08T18:31:29.972Z,62.00
2018-07-08T18:34:05.491Z,62.30
2018-07-08T18:36:40.646Z,62.80
2018-07-08T18:41:51.215Z,63.20
2018-07-08T18:44:26.701Z,63.70
2018-07-08T18:47:01.885Z,63.70
2018-07-08T18:49:37.207Z,64.00
2018-07-08T18:52:12.751Z,64.20
2018-07-08T18:54:48.272Z,64.80
2018-07-08T18:57:24.531Z,65.10
2018-07-08T18:59:59.622Z,66.20
2018-07-08T19:02:34.987Z,65.20
2018-07-08T19:05:10.284Z,65.00
2018-07-08T19:07:45.974Z,65.10
2018-07-08T19:10:22.611Z,65.10
2018-07-08T19:12:57.918Z,65.10
2018-07-08T19:15:34.314Z,65.70
2018-07-08T19:18:10.815Z,65.90
2018-07-08T19:20:47.573Z,66.00
2018-07-08T19:23:24.763Z,66.20
2018-07-08T19:26:01.421Z,66.70
2018-07-08T19:28:37.878Z,67.60
2018-07-08T19:31:14.382Z,68.90
2018-07-08T19:33:51.022Z,68.60
2018-07-08T19:36:27.710Z,69.00
2018-07-08T19:39:04.412Z,70.00
2018-07-08T19:41:41.383Z,68.90
2018-07-08T19:44:18.174Z,68.70
2018-07-08T19:46:54.516Z,68.60
2018-07-08T19:49:30.597Z,69.10
2018-07-08T19:52:07.330Z,69.50
2018-07-08T19:54:43.807Z,69.50
2018-07-08T19:57:20.980Z,69.30
2018-07-08T19:59:57.639Z,69.20
2018-07-08T20:02:34.063Z,69.40
2018-07-08T20:05:10.469Z,70.00
2018-07-08T20:07:47.083Z,69.90
2018-07-08T20:10:23.585Z,70.20
2018-07-08T20:13:00.020Z,70.20
2018-07-08T20:15:36.319Z,70.70
2018-07-08T20:18:12.178Z,70.90
2018-07-08T20:20:48.709Z,71.10
2018-07-08T20:26:42.593Z,71.60
2018-07-08T20:40:48.162Z,74.00
2018-07-08T20:43:23.689Z,73.90
2018-07-08T20:45:59.223Z,73.40
2018-07-08T20:48:34.975Z,73.60
2018-07-08T20:51:10.222Z,74.20
2018-07-08T20:53:45.339Z,74.70
2018-07-08T20:56:21.467Z,74.80
2018-07-08T20:58:56.932Z,73.80
2018-07-08T21:01:44.315Z,74.30
2018-07-08T21:16:40.008Z,76.90
2018-07-08T21:19:15.640Z,77.90
2018-07-08T21:21:51.010Z,78.40
2018-07-08T21:24:26.516Z,78.50
2018-07-08T21:27:06.093Z,79.20
2018-07-08T21:29:42.216Z,79.50
2018-07-08T21:32:24.002Z,79.30
2018-07-08T21:41:42.815Z,79.40
2018-07-08T21:48:03.623Z,79.60
2018-07-08T21:51:06.861Z,79.50
2018-07-08T21:53:46.365Z,80.30
2018-07-08T21:59:32.704Z,80.00
2018-07-08T22:02:18.432Z,80.10
2018-07-08T22:04:53.572Z,80.40
2018-07-08T22:07:34.153Z,80.30
2018-07-08T22:10:10.078Z,80.90
2018-07-08T22:12:45.397Z,81.20
2018-07-08T22:15:21.188Z,81.60
2018-07-08T22:17:56.989Z,81.50
2018-07-08T22:20:32.280Z,81.60
2018-07-08T22:23:07.536Z,81.90
2018-07-08T22:25:43.186Z,81.90
2018-07-08T22:28:18.829Z,82.30
2018-07-08T22:30:54.295Z,82.50
2018-07-08T22:36:04.481Z,82.90
2018-07-08T22:38:40.034Z,83.20
2018-07-08T22:41:15.299Z,83.30
2018-07-08T22:43:50.660Z,83.50
2018-07-08T22:46:26.012Z,83.50
2018-07-08T22:49:01.289Z,84.00
2018-07-08T22:51:37.632Z,84.40
2018-07-08T22:54:13.504Z,85.00
2018-07-08T22:56:48.859Z,84.50
2018-07-08T22:59:24.119Z,84.70
2018-07-08T23:02:10.856Z,84.80
2018-07-08T23:04:46.936Z,85.10
2018-07-08T23:07:22.028Z,85.30
2018-07-08T23:09:57.291Z,85.60
2018-07-08T23:12:32.778Z,86.00
2018-07-08T23:15:08.105Z,86.10
2018-07-08T23:17:45.755Z,86.60
2018-07-08T23:20:20.928Z,86.50
2018-07-08T23:22:58.675Z,86.70
2018-07-08T23:25:33.772Z,87.20
2018-07-08T23:28:08.869Z,87.50
2018-07-08T23:30:44.271Z,87.90
2018-07-08T23:33:19.499Z,87.90
2018-07-08T23:35:54.800Z,88.10
2018-07-08T23:38:31.093Z,88.40
2018-07-08T23:41:07.509Z,88.70
2018-07-08T23:43:42.803Z,88.80
2018-07-08T23:46:17.924Z,89.10
2018-07-08T23:48:53.007Z,89.50
2018-07-08T23:51:28.274Z,89.80
2018-07-08T23:54:03.440Z,90.00
2018-07-08T23:56:38.847Z,90.00
2018-07-08T23:59:14.580Z,90.00
